Time;durP1;ratioP1;P1;durP2;ratioP2;P2;SDS_P1;SDS_P2;PMS_P1;PMS_P2;Temp;Humidity;BMP_temperature;BMP_pressure;BME280_temperature;BME280_humidity;BME280_pressure;Samples;Min_cycle;Max_cycle;Signal;HPM_P1;HPM_P2
2023/01/08 00:00:46;;;;;;;33.10;20.27;;;;;;;5.98;68.64;100027.56;5064711;27;101164;-80
2023/01/08 00:03:12;;;;;;;33.90;20.47;;;;;;;6.02;68.71;100022.25;5052319;27;100806;-80
2023/01/08 00:05:38;;;;;;;32.45;19.55;;;;;;;6.02;68.73;100014.44;5057455;27;97155;-81
2023/01/08 00:08:04;;;;;;;36.58;19.88;;;;;;;6.02;68.73;99997.94;5048365;27;96924;-79
2023/01/08 00:10:30;;;;;;;32.47;19.93;;;;;;;5.95;68.73;100009.38;5054037;27;101391;-81
2023/01/08 00:12:55;;;;;;;36.67;20.83;;;;;;;5.98;69.05;100006.72;5045769;27;101559;-83
2023/01/08 00:15:21;;;;;;;31.70;19.67;;;;;;;6.01;68.86;100001.44;5061966;27;97146;-83
2023/01/08 00:17:47;;;;;;;33.17;20.23;;;;;;;6.03;68.88;100007.47;5048084;27;96968;-80
2023/01/08 00:20:13;;;;;;;32.50;20.10;;;;;;;6.03;68.75;99994.47;5083368;27;98574;-80
2023/01/08 00:22:38;;;;;;;34.07;20.77;;;;;;;6.05;68.02;100005.69;5054791;27;97612;-81
2023/01/08 00:25:04;;;;;;;32.13;20.45;;;;;;;5.89;68.66;100003.38;5052191;27;97230;-80
2023/01/08 00:27:30;;;;;;;32.23;19.90;;;;;;;5.91;68.66;99998.13;5053393;27;97486;-80
2023/01/08 00:29:55;;;;;;;30.87;19.83;;;;;;;5.94;68.50;99998.09;5046466;27;101712;-83
2023/01/08 00:32:21;;;;;;;32.30;18.70;;;;;;;6.00;68.36;99994.53;5039635;27;101453;-79
2023/01/08 00:34:47;;;;;;;33.83;19.83;;;;;;;6.01;67.97;99981.44;5053563;27;97175;-82
2023/01/08 00:37:13;;;;;;;29.47;18.80;;;;;;;6.01;68.08;99970.16;5044516;27;98122;-79
2023/01/08 00:39:38;;;;;;;31.87;18.13;;;;;;;6.02;68.07;99974.47;5041470;27;101216;-80
2023/01/08 00:42:04;;;;;;;26.27;17.70;;;;;;;5.98;67.70;99968.47;5051778;27;101370;-81
2023/01/08 00:44:29;;;;;;;32.27;19.23;;;;;;;5.95;68.42;99963.34;5061789;27;97660;-81
2023/01/08 00:46:55;;;;;;;30.53;17.93;;;;;;;6.01;68.07;99965.81;5049678;27;97882;-83
2023/01/08 00:49:20;;;;;;;31.17;18.73;;;;;;;5.99;67.57;99977.16;5057230;27;98335;-80
2023/01/08 00:51:46;;;;;;;32.63;18.17;;;;;;;5.93;67.98;99962.50;5054502;27;101189;-80
2023/01/08 00:54:11;;;;;;;30.20;17.07;;;;;;;5.99;67.75;99970.22;5044133;27;97905;-79
2023/01/08 00:56:37;;;;;;;29.33;17.20;;;;;;;5.94;67.65;99966.00;5052894;27;100080;-80
2023/01/08 00:59:03;;;;;;;28.38;17.65;;;;;;;5.96;67.68;99980.66;5055549;27;101849;-80
2023/01/08 01:01:28;;;;;;;29.17;18.00;;;;;;;5.95;67.54;99981.56;5053377;27;101493;-83
2023/01/08 01:03:54;;;;;;;30.57;17.63;;;;;;;5.83;67.87;99964.41;5044279;27;97293;-80
2023/01/08 01:06:19;;;;;;;28.07;16.93;;;;;;;5.90;67.68;99978.16;5046311;27;97097;-80
2023/01/08 01:08:45;;;;;;;31.13;17.47;;;;;;;5.83;67.88;99973.97;5051608;27;101141;-79
2023/01/08 01:11:17;;;;;;;30.73;16.87;;;;;;;5.68;68.45;99962.97;5052089;27;97644;-79
2023/01/08 01:13:43;;;;;;;37.53;16.97;;;;;;;5.78;68.62;99983.63;5057596;27;97594;-79
2023/01/08 01:16:08;;;;;;;29.13;16.83;;;;;;;5.80;68.41;99984.47;5072848;27;100132;-81
2023/01/08 01:18:34;;;;;;;32.00;17.63;;;;;;;5.68;68.32;99968.19;5049270;27;101680;-80
2023/01/08 01:21:00;;;;;;;27.87;17.57;;;;;;;5.68;68.37;99986.41;5051220;27;101682;-79
2023/01/08 01:23:25;;;;;;;37.20;19.63;;;;;;;5.76;68.31;99980.19;5047209;27;97391;-81
2023/01/08 01:25:53;;;;;;;31.57;19.47;;;;;;;5.68;68.73;99962.13;5061670;27;97916;-80
2023/01/08 01:28:18;;;;;;;33.27;20.37;;;;;;;5.75;68.33;99962.84;5071236;27;100564;-81
2023/01/08 01:30:44;;;;;;;38.03;20.80;;;;;;;5.76;68.31;99962.84;5034619;27;101653;-80
2023/01/08 01:33:09;;;;;;;32.63;19.97;;;;;;;5.59;68.35;99950.13;5038924;27;97942;-79
2023/01/08 01:35:35;;;;;;;35.78;20.85;;;;;;;5.74;68.42;99968.97;5053938;27;96886;-80
2023/01/08 01:38:00;;;;;;;36.03;21.17;;;;;;;5.76;68.49;99961.94;5055852;27;98057;-81
2023/01/08 01:40:26;;;;;;;39.33;22.03;;;;;;;5.75;68.13;99965.44;5052510;27;101593;-80
2023/01/08 01:42:51;;;;;;;34.77;21.27;;;;;;;5.75;68.26;99960.25;5045451;27;97353;-80
2023/01/08 01:45:21;;;;;;;39.47;20.73;;;;;;;5.66;68.27;99949.13;5067440;27;97718;-79
2023/01/08 01:47:54;;;;;;;42.10;22.63;;;;;;;5.62;67.91;99938.81;5053955;27;101727;-79
2023/01/08 01:50:34;;;;;;;39.60;22.57;;;;;;;5.68;68.16;99949.09;5071355;27;101695;-83
2023/01/08 01:53:10;;;;;;;38.73;22.50;;;;;;;5.72;68.02;99958.56;5048487;27;98084;-84
2023/01/08 01:55:38;;;;;;;38.67;22.40;;;;;;;5.68;67.91;99951.72;5031022;27;97199;-79
2023/01/08 01:58:10;;;;;;;38.37;23.03;;;;;;;5.62;67.90;99949.22;5020689;27;101128;-80
2023/01/08 02:00:36;;;;;;;39.40;22.07;;;;;;;5.48;68.35;99946.88;5065811;27;97609;-85
2023/01/08 02:03:02;;;;;;;38.63;22.83;;;;;;;5.39;68.45;99940.09;5068469;27;96782;-78
2023/01/08 02:05:47;;;;;;;42.83;25.57;;;;;;;5.45;68.39;99944.34;5034461;27;96876;-79
2023/01/08 02:08:40;;;;;;;39.57;24.20;;;;;;;5.26;68.65;99930.78;5064211;27;101696;-79
2023/01/08 02:11:06;;;;;;;;;;;;;;;5.36;68.71;99949.72;5066321;27;101543;-80
2023/01/08 02:13:36;;;;;;;37.67;23.03;;;;;;;5.37;68.58;99944.47;5056735;27;97860;-80
2023/01/08 02:16:14;;;;;;;42.57;24.30;;;;;;;5.38;68.44;99935.78;5063201;27;96778;-81
2023/01/08 02:18:54;;;;;;;42.50;24.07;;;;;;;5.48;68.67;99949.47;5028094;27;101584;-79
2023/01/08 02:21:35;;;;;;;39.43;22.50;;;;;;;5.50;68.13;99946.84;5072823;27;97774;-80
2023/01/08 02:24:17;;;;;;;40.53;23.87;;;;;;;5.49;68.51;99939.94;5050144;27;96938;-83
2023/01/08 02:26:44;;;;;;;41.33;24.67;;;;;;;5.49;68.11;99932.97;5035928;27;97352;-79
2023/01/08 02:29:15;;;;;;;39.40;24.50;;;;;;;5.33;68.56;99906.38;5054802;27;101500;-79
2023/01/08 02:31:42;;;;;;;45.50;24.43;;;;;;;5.52;68.20;99919.88;5047311;27;100416;-79
2023/01/08 02:34:08;;;;;;;43.97;24.60;;;;;;;5.34;68.11;99907.25;5055457;27;96994;-79
2023/01/08 02:36:52;;;;;;;47.70;25.93;;;;;;;5.35;68.10;99915.03;5051825;27;96748;-82
2023/01/08 02:39:36;;;;;;;51.47;26.37;;;;;;;5.45;68.00;99923.50;5053893;27;101405;-79
2023/01/08 02:42:13;;;;;;;42.20;22.93;;;;;;;5.47;68.19;99918.25;5061980;27;101546;-82
2023/01/08 02:44:44;;;;;;;39.83;23.97;;;;;;;5.42;68.05;99920.97;5074261;27;97078;-82
2023/01/08 02:47:18;;;;;;;40.08;24.08;;;;;;;5.31;68.13;99910.75;5056642;27;96820;-79
2023/01/08 02:49:46;;;;;;;45.03;26.43;;;;;;;5.17;68.60;99887.59;5047076;27;101731;-79
2023/01/08 02:52:12;;;;;;;45.63;25.90;;;;;;;5.33;68.69;99922.00;5058285;27;101616;-79
2023/01/08 02:54:38;;;;;;;39.33;23.80;;;;;;;5.29;67.92;99924.69;5074468;27;97229;-80
2023/01/08 02:57:12;;;;;;;49.83;26.27;;;;;;;5.33;68.38;99931.56;5066467;27;97055;-80
2023/01/08 02:59:38;;;;;;;42.60;24.03;;;;;;;5.25;68.28;99917.81;5053389;27;99861;-82
2023/01/08 03:02:04;;;;;;;39.20;24.23;;;;;;;5.25;68.78;99918.69;5021795;27;97502;-85
2023/01/08 03:04:36;;;;;;;40.80;23.77;;;;;;;5.12;68.83;99896.34;5015175;27;96916;-79
2023/01/08 03:07:02;;;;;;;36.65;22.58;;;;;;;5.22;68.82;99918.75;5019071;27;96690;-79
2023/01/08 03:09:28;;;;;;;39.33;23.97;;;;;;;5.28;68.71;99929.03;4999968;27;101422;-79
2023/01/08 03:12:03;;;;;;;39.07;23.37;;;;;;;5.32;68.40;99930.69;4995554;27;101471;-79
2023/01/08 03:14:58;;;;;;;41.33;24.40;;;;;;;5.31;68.64;99925.50;4990189;27;98204;-82
2023/01/08 03:17:29;;;;;;;42.67;23.83;;;;;;;5.29;68.20;99922.94;5007155;27;97394;-79
2023/01/08 03:20:00;;;;;;;40.08;25.27;;;;;;;5.25;68.71;99918.69;5000967;27;101366;-79
2023/01/08 03:22:26;;;;;;;37.37;23.90;;;;;;;5.33;68.76;99916.78;5011152;27;101230;-79
2023/01/08 03:24:53;;;;;;;41.50;24.67;;;;;;;5.29;69.06;99922.94;5013144;27;97003;-80
2023/01/08 03:27:24;;;;;;;38.63;24.00;;;;;;;5.24;69.08;99911.78;4999371;27;97400;-79
2023/01/08 03:29:51;;;;;;;38.33;24.13;;;;;;;5.27;68.89;99922.13;4996568;28;101440;-79
2023/01/08 03:32:18;;;;;;;43.67;25.87;;;;;;;5.27;68.45;99909.09;5000593;28;101268;-79
2023/01/08 03:34:45;;;;;;;47.93;27.03;;;;;;;5.25;68.53;99904.81;5023509;27;97127;-79
2023/01/08 03:37:12;;;;;;;45.53;26.60;;;;;;;5.25;68.66;99908.28;4998549;27;99403;-80
2023/01/08 03:39:45;;;;;;;44.90;24.80;;;;;;;5.25;68.81;99910.03;5018770;27;97512;-81
2023/01/08 03:42:13;;;;;;;49.00;28.40;;;;;;;5.22;68.88;99913.53;5019399;28;101194;-79
2023/01/08 03:44:39;;;;;;;42.77;26.87;;;;;;;5.14;68.63;99886.78;5011974;27;97710;-80
2023/01/08 03:47:07;;;;;;;39.17;26.37;;;;;;;5.11;68.89;99902.47;5004452;27;97877;-83
2023/01/08 03:49:34;;;;;;;43.47;25.93;;;;;;;5.05;69.07;99890.41;5017856;27;101195;-80
2023/01/08 03:52:00;;;;;;;40.10;25.50;;;;;;;4.97;69.46;99892.28;5015791;27;101166;-80
2023/01/08 03:54:29;;;;;;;43.87;26.20;;;;;;;5.00;69.48;99866.22;4990449;28;97220;-80
2023/01/08 03:56:55;;;;;;;44.87;27.03;;;;;;;4.88;69.49;99858.66;5037718;27;97233;-80
2023/01/08 03:59:21;;;;;;;47.77;28.80;;;;;;;4.86;70.10;99850.00;5029816;27;98555;-79
2023/01/08 04:01:46;;;;;;;49.67;28.40;;;;;;;4.89;69.96;99855.19;5036645;27;101335;-80
2023/01/08 04:04:12;;;;;;;44.80;26.53;;;;;;;4.91;69.94;99863.78;5026382;27;96812;-79
2023/01/08 04:06:37;;;;;;;45.60;26.67;;;;;;;4.96;69.91;99852.44;5066928;27;98256;-79
2023/01/08 04:09:03;;;;;;;43.30;27.27;;;;;;;4.94;69.62;99863.75;5049589;27;101203;-79
2023/01/08 04:11:28;;;;;;;41.80;26.13;;;;;;;4.96;69.85;99859.38;5051220;27;100726;-79
2023/01/08 04:13:54;;;;;;;42.67;26.67;;;;;;;4.97;69.41;99850.69;5044384;27;98018;-80
2023/01/08 04:16:21;;;;;;;45.70;25.90;;;;;;;4.96;69.71;99847.22;5045029;27;96963;-79
2023/01/08 04:18:46;;;;;;;44.43;24.30;;;;;;;5.02;69.88;99855.81;5040470;27;102141;-79
2023/01/08 04:21:12;;;;;;;42.37;27.10;;;;;;;5.01;69.65;99848.91;5057090;27;97346;-79
2023/01/08 04:23:37;;;;;;;44.83;26.70;;;;;;;5.08;69.48;99855.69;5048575;27;97524;-79
2023/01/08 04:26:07;;;;;;;42.00;25.60;;;;;;;5.06;69.80;99866.13;5055351;27;97095;-80
2023/01/08 04:28:33;;;;;;;44.33;26.17;;;;;;;5.08;69.63;99866.09;5038967;27;101170;-79
2023/01/08 04:30:58;;;;;;;40.67;25.43;;;;;;;5.07;69.62;99862.63;5075645;27;97200;-79
2023/01/08 04:33:27;;;;;;;38.97;24.83;;;;;;;5.12;69.31;99872.94;5045387;27;97558;-80
2023/01/08 04:35:52;;;;;;;42.47;24.93;;;;;;;5.13;69.53;99880.72;5053515;27;97198;-83
2023/01/08 04:38:18;;;;;;;40.47;25.07;;;;;;;5.11;69.55;99863.44;5065821;27;98476;-79
2023/01/08 04:40:43;;;;;;;38.90;25.00;;;;;;;5.13;69.22;99851.25;5055277;27;101398;-81
2023/01/08 04:43:09;;;;;;;42.80;25.53;;;;;;;5.18;69.31;99854.63;5051641;27;97205;-81
2023/01/08 04:45:34;;;;;;;45.93;25.67;;;;;;;5.10;68.91;99843.50;5049114;27;97381;-81
2023/01/08 04:48:00;;;;;;;40.40;25.17;;;;;;;5.09;69.26;99841.78;5033761;27;101658;-79
2023/01/08 04:50:26;;;;;;;41.20;24.97;;;;;;;5.08;69.37;99850.47;5044356;27;101446;-81
2023/01/08 04:52:52;;;;;;;42.70;25.27;;;;;;;5.02;68.97;99832.41;5023175;27;97933;-79
2023/01/08 04:55:17;;;;;;;42.77;24.77;;;;;;;5.02;69.46;99837.59;5047487;27;97065;-79
2023/01/08 04:57:43;;;;;;;41.37;25.70;;;;;;;5.04;69.50;99838.44;5050566;27;100906;-79
2023/01/08 05:00:09;;;;;;;41.70;24.93;;;;;;;5.08;68.99;99829.66;5039857;27;97274;-80
2023/01/08 05:02:35;;;;;;;42.83;24.33;;;;;;;5.06;69.49;99834.91;5054010;27;97261;-80
2023/01/08 05:05:01;;;;;;;41.53;24.17;;;;;;;5.09;69.07;99833.97;5056979;27;96960;-79
2023/01/08 05:07:27;;;;;;;37.37;23.53;;;;;;;4.97;69.40;99804.75;5044665;27;101173;-80
2023/01/08 05:09:52;;;;;;;41.17;24.73;;;;;;;5.07;69.40;99820.16;5052533;27;101159;-79
2023/01/08 05:12:18;;;;;;;43.30;25.17;;;;;;;5.05;69.23;99814.97;5044672;27;98135;-83
2023/01/08 05:14:44;;;;;;;36.57;22.97;;;;;;;5.11;69.56;99819.19;5040025;27;98417;-80
2023/01/08 05:17:09;;;;;;;40.13;24.73;;;;;;;5.05;69.50;99817.56;5050616;27;98691;-79
2023/01/08 05:19:35;;;;;;;40.67;25.17;;;;;;;5.04;69.50;99815.88;5044477;27;101408;-80
2023/01/08 05:22:01;;;;;;;41.33;23.80;;;;;;;5.05;69.50;99806.31;5051344;27;98121;-80
2023/01/08 05:24:26;;;;;;;45.80;26.00;;;;;;;5.08;69.62;99807.09;5036416;27;97320;-81
2023/01/08 05:26:52;;;;;;;43.37;24.83;;;;;;;5.12;68.97;99810.50;5035731;27;101407;-79
2023/01/08 05:29:17;;;;;;;44.80;27.10;;;;;;;5.13;68.95;99807.88;5057673;27;97506;-80
2023/01/08 05:31:43;;;;;;;47.53;26.50;;;;;;;5.12;69.25;99797.50;5056869;27;96652;-80
2023/01/08 05:34:09;;;;;;;40.87;24.73;;;;;;;5.10;69.59;99807.09;5056296;27;96920;-79
2023/01/08 05:36:34;;;;;;;42.23;24.60;;;;;;;5.00;69.64;99785.59;5031489;27;101755;-79
2023/01/08 05:39:00;;;;;;;39.33;24.17;;;;;;;5.06;69.56;99790.69;5037243;27;101006;-80
2023/01/08 05:41:25;;;;;;;48.87;27.30;;;;;;;5.04;69.75;99789.00;5034300;27;97364;-80
2023/01/08 05:43:51;;;;;;;47.87;29.00;;;;;;;5.03;69.12;99801.13;5034244;27;97669;-82
2023/01/08 05:46:16;;;;;;;42.83;25.43;;;;;;;4.95;69.08;99790.03;5034327;27;101502;-79
2023/01/08 05:48:42;;;;;;;40.03;25.23;;;;;;;5.01;68.73;99792.53;5046012;27;101488;-79
2023/01/08 05:51:08;;;;;;;42.80;24.50;;;;;;;4.98;69.19;99780.44;5031165;27;97416;-79
2023/01/08 05:53:33;;;;;;;40.27;23.33;;;;;;;5.06;69.44;99789.81;5040620;27;97181;-82
2023/01/08 05:56:01;;;;;;;38.90;23.10;;;;;;;5.09;68.97;99797.56;5035367;27;97624;-79
2023/01/08 05:58:26;;;;;;;36.70;22.70;;;;;;;5.07;69.04;99787.19;5022029;27;101074;-80
2023/01/08 06:00:52;;;;;;;37.90;23.77;;;;;;;5.06;69.26;99784.59;5052624;27;97406;-79
2023/01/08 06:03:22;;;;;;;40.17;23.40;;;;;;;5.03;69.31;99780.31;5051582;27;96994;-85
2023/01/08 06:05:47;;;;;;;37.43;23.57;;;;;;;5.02;69.29;99785.56;5043882;27;101194;-79
2023/01/08 06:08:14;;;;;;;43.17;26.47;;;;;;;4.97;69.48;99780.44;5049055;27;98113;-79
2023/01/08 06:10:40;;;;;;;41.20;23.83;;;;;;;4.95;69.29;99783.09;5032851;27;97069;-81
2023/01/08 06:13:09;;;;;;;39.00;23.43;;;;;;;4.93;69.23;99773.59;5038221;27;97347;-80
2023/01/08 06:15:36;;;;;;;36.50;22.60;;;;;;;4.92;69.57;99772.75;5042098;27;97924;-80
2023/01/08 06:18:02;;;;;;;39.07;24.13;;;;;;;4.99;69.75;99782.13;5055523;27;101343;-80
2023/01/08 06:20:28;;;;;;;37.37;23.00;;;;;;;4.99;69.30;99783.88;5052919;27;97204;-81
2023/01/08 06:22:53;;;;;;;39.30;23.17;;;;;;;4.95;69.11;99774.44;5023698;27;97164;-79
2023/01/08 06:25:19;;;;;;;37.23;23.87;;;;;;;4.82;69.16;99741.75;5027728;27;101160;-83
2023/01/08 06:27:52;;;;;;;42.73;25.93;;;;;;;4.95;68.80;99753.63;5034039;27;101996;-79
2023/01/08 06:30:18;;;;;;;38.20;24.43;;;;;;;4.80;69.20;99749.59;5028408;27;96972;-79
2023/01/08 06:32:44;;;;;;;35.80;22.03;;;;;;;4.79;69.87;99740.06;5040885;27;96908;-79
2023/01/08 06:35:09;;;;;;;40.17;22.77;;;;;;;4.99;69.60;99765.66;5055732;27;97502;-79
2023/01/08 06:37:35;;;;;;;34.87;22.27;;;;;;;5.02;69.46;99757.81;5038027;27;101241;-79
2023/01/08 06:40:00;;;;;;;33.37;20.70;;;;;;;4.89;69.47;99720.78;5052553;27;97766;-81
2023/01/08 06:42:26;;;;;;;38.63;21.67;;;;;;;4.93;70.00;99740.63;5038803;27;96919;-83
2023/01/08 06:44:52;;;;;;;37.47;23.57;;;;;;;5.02;69.27;99741.34;5042293;27;101169;-79
2023/01/08 06:47:17;;;;;;;37.03;21.97;;;;;;;4.90;70.01;99719.03;5035215;27;100975;-81
2023/01/08 06:49:43;;;;;;;34.20;22.33;;;;;;;5.00;69.21;99746.56;5053736;27;97082;-79
2023/01/08 06:52:08;;;;;;;38.33;23.13;;;;;;;4.95;69.20;99743.22;5030413;27;97880;-78
2023/01/08 06:54:34;;;;;;;40.00;24.60;;;;;;;4.92;69.11;99746.75;5050279;27;98033;-78
2023/01/08 06:56:59;;;;;;;33.10;21.40;;;;;;;4.92;69.98;99748.50;5055354;27;97689;-78
2023/01/08 06:59:25;;;;;;;31.90;21.40;;;;;;;4.92;70.07;99753.69;5054658;27;97026;-78
2023/01/08 07:01:50;;;;;;;33.23;21.27;;;;;;;4.89;69.97;99759.81;5052079;27;97400;-78
2023/01/08 07:04:17;;;;;;;33.20;20.73;;;;;;;4.98;70.50;99769.16;5051873;27;101226;-78
2023/01/08 07:06:42;;;;;;;38.50;22.03;;;;;;;5.01;70.10;99760.44;5038224;27;101682;-80
2023/01/08 07:09:11;;;;;;;37.30;21.17;;;;;;;4.95;70.19;99748.44;5049942;27;97122;-81
2023/01/08 07:11:37;;;;;;;34.57;22.60;;;;;;;5.06;69.85;99763.78;5050311;27;98009;-78
2023/01/08 07:14:03;;;;;;;34.83;21.27;;;;;;;5.01;69.93;99763.06;5049872;27;101841;-78
2023/01/08 07:16:28;;;;;;;35.60;19.90;;;;;;;5.03;69.68;99754.31;5025943;27;101310;-79
2023/01/08 07:18:54;;;;;;;37.90;22.53;;;;;;;5.01;70.02;99763.06;5057634;27;97111;-80
2023/01/08 07:21:21;;;;;;;35.47;21.03;;;;;;;5.03;69.70;99769.06;5046571;27;96973;-78
2023/01/08 07:23:48;;;;;;;29.63;20.17;;;;;;;5.09;69.84;99769.81;5034858;27;101729;-78
2023/01/08 07:26:13;;;;;;;36.70;21.90;;;;;;;5.04;69.55;99756.03;5056879;27;101760;-78
2023/01/08 07:28:39;;;;;;;33.80;21.10;;;;;;;5.07;69.47;99762.94;5041604;27;96936;-78
2023/01/08 07:31:05;;;;;;;34.67;20.97;;;;;;;5.05;69.73;99751.69;5065995;27;97869;-78
2023/01/08 07:33:30;;;;;;;35.33;22.03;;;;;;;5.02;69.76;99743.94;5050510;27;101225;-79
2023/01/08 07:35:56;;;;;;;33.77;21.23;;;;;;;5.05;69.41;99749.09;5035440;27;100983;-78
2023/01/08 07:38:22;;;;;;;34.03;20.27;;;;;;;5.09;69.67;99743.78;5074382;27;96770;-79
2023/01/08 07:40:48;;;;;;;34.10;20.57;;;;;;;4.96;69.45;99705.91;5054560;27;97169;-78
2023/01/08 07:43:14;;;;;;;35.37;22.07;;;;;;;5.12;69.76;99730.72;5049581;27;101410;-78
2023/01/08 07:45:40;;;;;;;31.77;20.30;;;;;;;5.03;69.88;99709.22;5053532;27;97540;-79
2023/01/08 07:48:06;;;;;;;31.40;20.40;;;;;;;5.14;70.38;99731.53;5043847;27;97091;-78
2023/01/08 07:50:31;;;;;;;43.57;23.37;;;;;;;5.12;69.56;99727.25;5035962;27;98006;-80
2023/01/08 07:52:58;;;;;;;35.07;21.13;;;;;;;5.12;69.75;99722.03;5054748;27;101135;-78
2023/01/08 07:55:25;;;;;;;32.03;20.47;;;;;;;5.16;69.95;99729.75;5055578;27;98637;-78
2023/01/08 07:57:50;;;;;;;32.20;20.00;;;;;;;5.02;70.61;99700.56;5075560;27;97119;-77
2023/01/08 08:00:16;;;;;;;28.17;18.23;;;;;;;5.25;71.01;99717.44;5052148;27;96877;-78
2023/01/08 08:02:42;;;;;;;28.33;17.57;;;;;;;5.19;71.02;99708.03;5074652;27;97629;-79
2023/01/08 08:05:07;;;;;;;29.00;18.50;;;;;;;5.26;71.20;99704.38;5057102;27;97687;-78
2023/01/08 08:07:34;;;;;;;27.40;17.37;;;;;;;5.25;71.43;99709.63;5040996;27;99457;-78
2023/01/08 08:10:00;;;;;;;26.50;17.27;;;;;;;5.29;70.83;99711.25;5049654;27;97007;-79
2023/01/08 08:12:26;;;;;;;29.30;17.63;;;;;;;5.36;71.04;99712.84;5057287;27;98086;-79
2023/01/08 08:14:51;;;;;;;27.33;17.03;;;;;;;5.48;71.12;99715.19;5038126;27;101570;-81
2023/01/08 08:17:17;;;;;;;25.47;15.83;;;;;;;5.58;71.17;99702.78;5069149;27;97343;-79
2023/01/08 08:19:44;;;;;;;24.17;15.67;;;;;;;5.64;70.90;99698.31;5027837;27;97184;-78
2023/01/08 08:22:11;;;;;;;24.47;17.37;;;;;;;5.68;71.00;99684.31;5048300;27;101179;-78
2023/01/08 08:24:37;;;;;;;21.40;14.40;;;;;;;5.83;70.69;99690.91;5052353;27;102121;-78
2023/01/08 08:27:03;;;;;;;23.17;16.40;;;;;;;5.96;70.61;99693.22;5027955;27;97551;-77
2023/01/08 08:29:28;;;;;;;25.97;15.97;;;;;;;6.18;70.88;99691.78;5053749;27;97200;-81
2023/01/08 08:31:54;;;;;;;25.37;16.13;;;;;;;6.13;71.10;99665.00;5033872;27;101360;-78
2023/01/08 08:34:21;;;;;;;24.37;14.90;;;;;;;6.32;70.91;99675.81;5032734;27;101352;-78
2023/01/08 08:36:50;;;;;;;24.30;15.47;;;;;;;6.33;70.98;99664.47;5056266;27;97404;-81
2023/01/08 08:39:15;;;;;;;22.93;14.77;;;;;;;6.37;70.85;99668.72;5037693;27;98150;-79
2023/01/08 08:41:41;;;;;;;24.77;15.47;;;;;;;6.45;71.05;99643.25;5039441;27;101648;-78
2023/01/08 08:44:07;;;;;;;22.90;15.30;;;;;;;6.80;70.85;99672.72;5039715;27;100243;-78
2023/01/08 08:46:33;;;;;;;22.13;14.43;;;;;;;6.99;69.84;99681.72;5023481;27;96837;-78
2023/01/08 08:48:59;;;;;;;23.02;14.85;;;;;;;7.25;69.83;99682.69;5071234;27;97004;-78
2023/01/08 08:51:25;;;;;;;22.53;14.80;;;;;;;7.52;69.27;99678.38;5024971;27;101108;-79
2023/01/08 08:53:50;;;;;;;20.08;14.48;;;;;;;7.73;68.45;99676.81;5042790;27;97994;-78
2023/01/08 08:56:16;;;;;;;22.58;14.27;;;;;;;7.96;68.32;99677.81;5054228;27;96808;-79
2023/01/08 08:58:41;;;;;;;23.55;15.25;;;;;;;8.18;67.29;99680.56;5054691;27;97335;-78
2023/01/08 09:01:07;;;;;;;20.48;13.93;;;;;;;8.34;66.96;99679.13;5036969;27;101507;-78
2023/01/08 09:03:33;;;;;;;22.20;13.70;;;;;;;8.52;66.99;99677.66;5053671;27;99669;-80
2023/01/08 09:05:59;;;;;;;20.40;14.25;;;;;;;8.70;66.39;99686.63;5024458;27;98143;-79
2023/01/08 09:08:25;;;;;;;23.95;15.68;;;;;;;8.80;66.01;99686.22;5032873;27;97089;-78
2023/01/08 09:10:50;;;;;;;20.30;14.38;;;;;;;8.99;65.85;99682.94;5032622;27;101332;-79
2023/01/08 09:13:16;;;;;;;19.92;13.77;;;;;;;9.07;65.42;99675.63;5035902;27;101061;-78
2023/01/08 09:15:42;;;;;;;20.48;12.77;;;;;;;9.10;65.38;99680.72;5060976;27;97642;-78
2023/01/08 09:18:07;;;;;;;21.95;14.13;;;;;;;9.07;65.27;99676.50;5049490;27;97023;-79
2023/01/08 09:20:33;;;;;;;18.60;12.63;;;;;;;9.14;65.71;99681.50;5033137;27;101473;-79
2023/01/08 09:22:59;;;;;;;19.73;13.48;;;;;;;9.32;66.30;99690.41;5042592;27;97828;-78
2023/01/08 09:25:24;;;;;;;18.05;13.02;;;;;;;9.37;65.40;99681.44;5034153;27;97161;-79
2023/01/08 09:28:01;;;;;;;16.90;12.18;;;;;;;9.43;65.77;99688.22;5039690;27;97798;-80
2023/01/08 09:30:27;;;;;;;19.50;12.32;;;;;;;9.50;64.77;99672.19;5046755;27;101696;-78
2023/01/08 09:32:58;;;;;;;18.50;12.65;;;;;;;9.49;65.06;99659.16;5054968;27;101614;-78
2023/01/08 09:35:24;;;;;;;17.30;12.93;;;;;;;9.70;65.10;99671.38;5036138;27;97184;-78
2023/01/08 09:37:50;;;;;;;17.08;11.90;;;;;;;9.91;65.34;99663.53;5040060;27;97318;-77
2023/01/08 09:40:16;;;;;;;15.48;11.20;;;;;;;10.09;65.13;99643.56;5045854;27;98113;-77
2023/01/08 09:42:42;;;;;;;16.33;11.27;;;;;;;10.26;63.79;99648.09;5057485;27;97706;-81
2023/01/08 09:45:17;;;;;;;14.85;11.18;;;;;;;10.60;62.56;99665.88;5031637;27;100102;-77
2023/01/08 09:47:43;;;;;;;16.60;11.35;;;;;;;10.68;62.32;99660.28;5051092;27;98028;-77
2023/01/08 09:50:12;;;;;;;14.45;10.38;;;;;;;10.77;62.03;99647.59;5037737;27;101417;-78
2023/01/08 09:52:38;;;;;;;13.63;9.95;;;;;;;10.92;62.23;99648.66;5043152;27;97596;-77
2023/01/08 09:55:14;;;;;;;14.45;10.40;;;;;;;11.08;61.39;99640.91;5030577;27;97361;-78
2023/01/08 09:57:40;;;;;;;15.95;10.55;;;;;;;11.22;61.28;99640.25;5046509;27;96938;-77
2023/01/08 10:00:12;;;;;;;12.57;9.95;;;;;;;11.11;60.35;99648.63;5045226;27;101569;-77
2023/01/08 10:02:38;;;;;;;;;;;;;;;10.91;61.06;99641.72;5037050;27;101681;-77
2023/01/08 10:05:13;;;;;;;13.90;9.77;;;;;;;10.81;61.52;99635.16;5038325;27;97156;-77
2023/01/08 10:07:39;;;;;;;14.27;10.48;;;;;;;10.71;61.64;99615.53;5054378;27;97291;-81
2023/01/08 10:10:05;;;;;;;14.55;10.40;;;;;;;10.72;62.24;99615.44;5044580;27;101422;-81
2023/01/08 10:12:32;;;;;;;14.02;9.82;;;;;;;10.78;62.24;99625.66;5071578;27;97479;-82
2023/01/08 10:15:00;;;;;;;14.43;10.50;;;;;;;10.77;61.52;99616.09;5043717;27;97396;-79
2023/01/08 10:17:30;;;;;;;20.92;11.32;;;;;;;10.76;61.64;99630.13;5037282;27;97419;-80
2023/01/08 10:19:56;;;;;;;15.05;10.68;;;;;;;10.57;62.10;99616.97;5050330;27;97854;-78
2023/01/08 10:22:29;;;;;;;13.68;10.20;;;;;;;10.55;62.29;99615.34;5037683;27;100743;-78
2023/01/08 10:25:06;;;;;;;12.75;9.68;;;;;;;10.57;62.28;99609.13;5054907;27;96826;-78
2023/01/08 10:27:44;;;;;;;12.65;9.07;;;;;;;10.50;62.53;99612.94;5072734;27;97653;-79
2023/01/08 10:30:14;;;;;;;12.32;9.02;;;;;;;10.53;62.84;99611.94;5063475;27;98110;-78
2023/01/08 10:32:47;;;;;;;15.17;10.20;;;;;;;10.58;62.48;99609.97;5055270;27;101702;-76
2023/01/08 10:35:16;;;;;;;17.90;11.85;;;;;;;10.59;62.16;99595.94;5052924;27;97340;-76
2023/01/08 10:37:42;;;;;;;17.92;10.98;;;;;;;10.55;62.54;99603.06;5040826;27;96948;-75
2023/01/08 10:40:29;;;;;;;13.02;8.93;;;;;;;10.57;62.07;99606.50;5057342;27;98034;-77
2023/01/08 10:42:56;;;;;;;14.15;9.13;;;;;;;10.51;62.09;99596.28;5049694;27;101253;-78
2023/01/08 10:45:27;;;;;;;12.57;9.75;;;;;;;10.45;62.18;99593.09;5052793;27;97287;-77
2023/01/08 10:47:58;;;;;;;13.77;8.82;;;;;;;10.37;62.19;99583.75;5073413;27;97142;-76
2023/01/08 10:50:28;;;;;;;12.82;8.93;;;;;;;10.27;62.78;99579.88;5076511;27;98109;-79
2023/01/08 10:52:59;;;;;;;10.98;8.52;;;;;;;10.36;62.47;99583.84;5066224;27;97474;-78
2023/01/08 10:55:28;;;;;;;14.70;8.38;;;;;;;10.27;62.17;99597.34;5067463;27;97230;-80
2023/01/08 10:58:12;;;;;;;13.15;7.55;;;;;;;10.13;62.27;99587.44;5036602;27;98015;-75
2023/01/08 11:00:37;;;;;;;12.18;8.15;;;;;;;10.03;62.53;99573.03;5054899;27;101582;-78
2023/01/08 11:03:05;;;;;;;11.68;8.52;;;;;;;9.98;63.12;99565.38;5034733;27;101519;-75
2023/01/08 11:05:37;;;;;;;11.48;8.32;;;;;;;9.94;63.40;99548.91;5033853;27;97569;-77
2023/01/08 11:08:06;;;;;;;11.93;8.52;;;;;;;9.97;63.14;99564.50;5046013;27;98253;-76
2023/01/08 11:10:33;;;;;;;11.07;7.85;;;;;;;9.92;62.85;99560.41;5017121;27;101048;-75
2023/01/08 11:13:03;;;;;;;10.70;7.63;;;;;;;9.95;62.73;99566.34;5019574;27;100920;-76
2023/01/08 11:15:41;;;;;;;10.52;7.47;;;;;;;9.89;63.36;99556.13;5052993;27;97487;-75
2023/01/08 11:18:16;;;;;;;12.98;8.90;;;;;;;9.85;63.77;99554.56;5052033;27;97010;-74
2023/01/08 11:20:42;;;;;;;12.05;7.82;;;;;;;9.91;63.72;99556.91;5033750;27;101243;-77
2023/01/08 11:23:30;;;;;;;11.05;8.30;;;;;;;9.95;63.22;99573.38;5033322;27;101262;-77